createdAt,value
2018-02-24T00:02:15.808Z,49.30
2018-02-24T00:04:43.390Z,49.40
2018-02-24T00:07:10.966Z,49.00
2018-02-24T00:09:39.334Z,50.00
2018-02-24T00:12:07.683Z,48.50
2018-02-24T00:14:35.324Z,48.50
2018-02-24T00:17:03.687Z,50.20
2018-02-24T00:19:31.270Z,50.20
2018-02-24T00:21:58.878Z,49.70
2018-02-24T00:24:26.461Z,49.00
2018-02-24T00:26:54.072Z,48.00
2018-02-24T00:29:21.695Z,47.80
2018-02-24T00:31:49.303Z,47.80
2018-02-24T00:34:16.886Z,48.40
2018-02-24T00:36:44.528Z,48.00
2018-02-24T00:39:12.135Z,48.10
2018-02-24T00:41:39.711Z,47.90
2018-02-24T00:44:07.314Z,47.30
2018-02-24T00:46:35.663Z,48.10
2018-02-24T00:49:03.271Z,48.10
2018-02-24T00:51:30.859Z,48.50
2018-02-24T00:53:58.439Z,48.20
2018-02-24T00:56:26.051Z,47.80
2018-02-24T00:58:53.683Z,47.80
2018-02-24T01:01:21.298Z,47.90
2018-02-24T01:03:48.874Z,48.40
2018-02-24T01:06:16.471Z,47.90
2018-02-24T01:08:44.099Z,48.30
2018-02-24T01:11:11.726Z,48.10
2018-02-24T01:13:39.307Z,47.80
2018-02-24T01:16:06.901Z,47.90
2018-02-24T01:18:34.514Z,47.70
2018-02-24T01:21:02.102Z,48.00
2018-02-24T01:23:29.692Z,48.10
2018-02-24T01:25:57.290Z,48.00
2018-02-24T01:28:24.890Z,48.50
2018-02-24T01:30:52.471Z,47.80
2018-02-24T01:33:20.081Z,48.00
2018-02-24T01:35:47.666Z,48.30
2018-02-24T01:38:15.275Z,48.30
2018-02-24T01:40:42.858Z,48.70
2018-02-24T01:43:10.462Z,48.40
2018-02-24T01:45:38.044Z,48.10
2018-02-24T01:48:05.622Z,48.50
2018-02-24T01:50:41.779Z,48.10
2018-02-24T01:53:09.398Z,48.00
2018-02-24T01:55:36.978Z,48.40
2018-02-24T01:58:04.558Z,48.50
2018-02-24T02:00:32.186Z,48.30
2018-02-24T02:02:59.779Z,48.60
2018-02-24T02:05:27.362Z,48.60
2018-02-24T02:07:54.990Z,49.00
2018-02-24T02:10:23.333Z,48.80
2018-02-24T02:12:50.962Z,48.80
2018-02-24T02:15:18.621Z,48.90
2018-02-24T02:17:46.198Z,48.70
2018-02-24T02:20:14.542Z,48.90
2018-02-24T02:22:42.171Z,48.80
2018-02-24T02:25:09.751Z,49.70
2018-02-24T02:27:38.106Z,48.60
2018-02-24T02:30:06.495Z,48.10
2018-02-24T02:32:34.107Z,48.00
2018-02-24T02:35:01.687Z,48.50
2018-02-24T02:37:29.274Z,49.30
2018-02-24T02:39:56.880Z,49.70
2018-02-24T02:42:24.469Z,49.00
2018-02-24T02:44:52.046Z,49.20
2018-02-24T02:47:20.424Z,48.70
2018-02-24T02:49:48.046Z,48.70
2018-02-24T02:52:15.627Z,49.70
2018-02-24T02:54:43.211Z,48.30
2018-02-24T02:57:10.827Z,48.40
2018-02-24T02:59:38.411Z,48.00
2018-02-24T03:02:06.024Z,48.50
2018-02-24T03:04:33.625Z,48.20
2018-02-24T03:07:02.024Z,47.50
2018-02-24T03:09:29.603Z,47.50
2018-02-24T03:11:57.187Z,48.00
2018-02-24T03:14:25.568Z,47.80
2018-02-24T03:16:53.150Z,47.70
2018-02-24T03:19:20.771Z,47.40
2018-02-24T03:21:48.354Z,47.80
2018-02-24T03:24:15.961Z,47.80
2018-02-24T03:26:43.539Z,48.90
2018-02-24T03:29:11.173Z,47.50
2018-02-24T03:31:38.764Z,50.10
2018-02-24T03:34:06.347Z,49.00
2018-02-24T03:36:33.950Z,49.80
2018-02-24T03:39:01.530Z,49.70
2018-02-24T03:41:29.139Z,48.60
2018-02-24T03:43:56.774Z,48.50
2018-02-24T03:46:28.239Z,48.60
2018-02-24T03:48:56.591Z,49.30
2018-02-24T03:51:24.174Z,49.30
2018-02-24T03:53:51.774Z,48.10
2018-02-24T03:56:19.364Z,48.40
2018-02-24T03:58:46.946Z,48.30
2018-02-24T04:01:14.555Z,48.20
2018-02-24T04:03:42.134Z,48.50
2018-02-24T04:06:09.734Z,47.70
2018-02-24T04:08:38.082Z,50.00
2018-02-24T04:11:05.683Z,49.90
2018-02-24T04:13:33.267Z,50.20
2018-02-24T04:16:00.877Z,49.60
2018-02-24T04:18:28.487Z,49.10
2018-02-24T04:20:56.069Z,48.50
2018-02-24T04:23:23.678Z,48.60
2018-02-24T04:25:52.021Z,48.50
2018-02-24T04:28:19.647Z,48.50
2018-02-24T04:30:47.231Z,48.80
2018-02-24T04:33:15.596Z,48.00
2018-02-24T04:35:43.203Z,48.00
2018-02-24T04:38:10.785Z,48.30
2018-02-24T04:40:39.159Z,48.30
2018-02-24T04:43:06.743Z,48.30
2018-02-24T04:45:34.353Z,47.20
2018-02-24T04:48:01.931Z,48.50
2018-02-24T04:50:29.539Z,48.10
2018-02-24T04:52:57.123Z,48.40
2018-02-24T04:55:24.703Z,48.50
2018-02-24T04:57:52.311Z,48.40
2018-02-24T05:00:19.897Z,47.90
2018-02-24T05:02:48.278Z,48.50
2018-02-24T05:05:16.626Z,47.70
2018-02-24T05:07:44.236Z,47.70
2018-02-24T05:10:11.813Z,47.80
2018-02-24T05:12:39.419Z,48.50
2018-02-24T05:15:07.002Z,48.10
2018-02-24T05:17:34.583Z,48.70
2018-02-24T05:20:02.190Z,47.80
2018-02-24T05:22:29.775Z,48.00
2018-02-24T05:24:57.386Z,48.40
2018-02-24T05:27:24.967Z,49.30
2018-02-24T05:29:52.551Z,48.40
2018-02-24T05:32:20.152Z,48.50
2018-02-24T05:34:47.727Z,49.20
2018-02-24T05:37:15.336Z,49.00
2018-02-24T05:39:43.691Z,49.20
2018-02-24T05:42:12.062Z,48.50
2018-02-24T05:44:40.434Z,48.70
2018-02-24T05:47:08.038Z,48.60
2018-02-24T05:49:35.614Z,48.60
2018-02-24T05:52:03.954Z,48.70
2018-02-24T05:54:31.555Z,48.60
2018-02-24T05:56:59.134Z,48.50
2018-02-24T05:59:26.759Z,47.90
2018-02-24T06:01:54.338Z,47.90
2018-02-24T06:04:21.919Z,49.80
2018-02-24T06:06:49.526Z,50.50
2018-02-24T06:09:17.127Z,50.50
2018-02-24T06:11:44.710Z,49.50
2018-02-24T06:14:12.314Z,49.50
2018-02-24T06:16:39.926Z,49.50
2018-02-24T06:19:07.511Z,48.90
2018-02-24T06:21:35.101Z,48.60
2018-02-24T06:24:02.707Z,49.80
2018-02-24T06:26:30.302Z,48.70
2018-02-24T06:28:57.931Z,49.30
2018-02-24T06:31:25.515Z,49.90
2018-02-24T06:33:53.887Z,48.00
2018-02-24T06:36:21.476Z,48.00
2018-02-24T06:38:49.563Z,48.80
2018-02-24T06:41:17.149Z,48.30
2018-02-24T06:43:44.727Z,47.70
2018-02-24T06:46:12.372Z,48.10
2018-02-24T06:48:39.955Z,48.20
2018-02-24T06:51:08.319Z,48.60
2018-02-24T06:53:36.666Z,48.50
2018-02-24T06:56:04.274Z,48.50
2018-02-24T06:58:31.854Z,48.50
2018-02-24T07:00:59.480Z,48.80
2018-02-24T07:03:27.062Z,49.00
2018-02-24T07:05:54.642Z,48.60
2018-02-24T07:08:22.246Z,48.80
2018-02-24T07:10:49.830Z,47.70
2018-02-24T07:13:17.434Z,48.10
2018-02-24T07:15:45.139Z,47.70
2018-02-24T07:18:12.747Z,47.90
2018-02-24T07:20:41.115Z,48.70
2018-02-24T07:23:09.510Z,48.20
2018-02-24T07:25:37.099Z,48.10
2018-02-24T07:28:04.878Z,47.90
2018-02-24T07:30:33.286Z,48.90
2018-02-24T07:33:00.871Z,48.90
2018-02-24T07:35:28.483Z,47.30
2018-02-24T07:37:56.067Z,47.20
2018-02-24T07:40:23.687Z,47.50
2018-02-24T07:42:51.268Z,47.40
2018-02-24T07:45:19.617Z,47.10
2018-02-24T07:47:47.218Z,46.90
2018-02-24T07:50:14.818Z,47.80
2018-02-24T07:52:43.186Z,47.80
2018-02-24T07:55:11.590Z,47.40
2018-02-24T07:57:39.166Z,47.30
2018-02-24T08:00:06.751Z,47.60
2018-02-24T08:02:35.117Z,50.10
2018-02-24T08:05:03.487Z,48.00
2018-02-24T08:07:31.107Z,47.90
2018-02-24T08:09:58.682Z,47.90
2018-02-24T08:12:26.264Z,46.90
2018-02-24T08:14:53.878Z,47.10
2018-02-24T08:17:21.463Z,46.00
2018-02-24T08:19:49.042Z,44.90
2018-02-24T08:22:17.431Z,46.20
2018-02-24T08:24:45.015Z,46.10
2018-02-24T08:27:12.663Z,46.30
2018-02-24T08:29:40.271Z,44.70
2018-02-24T08:32:07.857Z,45.20
2018-02-24T08:34:35.439Z,44.90
2018-02-24T08:37:03.815Z,45.40
2018-02-24T08:39:32.186Z,44.60
2018-02-24T08:41:59.768Z,44.60
2018-02-24T08:44:27.379Z,45.50
2018-02-24T08:46:54.987Z,45.80
2018-02-24T08:49:22.590Z,44.90
2018-02-24T08:51:50.179Z,45.10
2018-02-24T08:54:17.798Z,44.30
2018-02-24T08:56:45.383Z,45.00
2018-02-24T08:59:12.986Z,44.70
2018-02-24T09:01:40.596Z,45.80
2018-02-24T09:04:08.323Z,45.70
2018-02-24T09:06:35.926Z,44.80
2018-02-24T09:09:03.518Z,43.90
2018-02-24T09:11:31.150Z,45.70
2018-02-24T09:13:58.780Z,45.50
2018-02-24T09:16:26.650Z,43.40
2018-02-24T09:18:54.390Z,45.10
2018-02-24T09:21:21.984Z,45.90
2018-02-24T09:23:49.639Z,44.60
2018-02-24T09:26:17.420Z,45.60
2018-02-24T09:28:45.013Z,43.60
2018-02-24T09:31:13.382Z,42.80
2018-02-24T09:33:41.831Z,43.80
2018-02-24T09:36:10.507Z,43.70
2018-02-24T09:38:38.859Z,44.00
2018-02-24T09:41:06.468Z,43.90
2018-02-24T09:43:34.079Z,45.10
2018-02-24T09:46:01.960Z,42.20
2018-02-24T09:48:29.780Z,42.10
2018-02-24T09:50:57.372Z,42.60
2018-02-24T09:53:24.955Z,41.30
2018-02-24T09:55:53.342Z,42.40
2018-02-24T09:58:21.078Z,42.30
2018-02-24T10:00:49.418Z,40.50
2018-02-24T10:03:17.019Z,40.50
2018-02-24T10:05:44.615Z,41.80
2018-02-24T10:08:12.292Z,40.70
2018-02-24T10:10:40.832Z,46.00
2018-02-24T10:13:09.439Z,43.50
2018-02-24T10:15:37.046Z,43.60
2018-02-24T10:18:04.651Z,46.30
2018-02-24T10:20:32.344Z,43.40
2018-02-24T10:23:00.741Z,44.10
2018-02-24T10:25:28.326Z,44.00
2018-02-24T10:27:55.968Z,42.10
2018-02-24T10:30:23.834Z,42.40
2018-02-24T10:32:51.450Z,43.80
2018-02-24T10:35:19.979Z,40.40
2018-02-24T10:37:48.331Z,41.60
2018-02-24T10:40:15.938Z,41.50
2018-02-24T10:42:43.523Z,42.60
2018-02-24T10:45:11.107Z,41.90
2018-02-24T10:47:38.719Z,42.30
2018-02-24T10:50:07.067Z,39.90
2018-02-24T10:52:34.651Z,40.50
2018-02-24T10:55:02.259Z,40.50
2018-02-24T10:57:29.897Z,40.70
2018-02-24T10:59:57.503Z,41.80
2018-02-24T11:02:25.088Z,43.00
2018-02-24T11:04:52.710Z,42.30
2018-02-24T11:07:20.292Z,43.20
2018-02-24T11:09:47.883Z,41.80
2018-02-24T11:12:15.493Z,41.50
2018-02-24T11:14:43.934Z,44.20
2018-02-24T11:17:11.547Z,44.00
2018-02-24T11:19:39.131Z,42.00
2018-02-24T11:22:06.743Z,40.60
2018-02-24T11:24:34.339Z,40.70
2018-02-24T11:27:01.947Z,42.00
2018-02-24T11:29:29.555Z,42.10
2018-02-24T11:31:57.903Z,43.90
2018-02-24T11:34:26.275Z,40.70
2018-02-24T11:36:54.627Z,40.50
2018-02-24T11:39:27.907Z,40.50
2018-02-24T11:41:56.266Z,41.80
2018-02-24T11:44:23.847Z,41.80
2018-02-24T11:46:51.487Z,44.90
2018-02-24T11:49:19.072Z,43.50
2018-02-24T11:51:46.659Z,43.60
2018-02-24T11:54:14.287Z,42.10
2018-02-24T11:56:41.907Z,45.70
2018-02-24T11:59:09.538Z,45.10
2018-02-24T12:01:37.119Z,44.50
2018-02-24T12:04:04.727Z,45.20
2018-02-24T12:06:32.337Z,42.20
2018-02-24T12:09:00.722Z,40.50
2018-02-24T12:11:28.327Z,40.50
2018-02-24T12:13:56.708Z,42.70
2018-02-24T12:16:25.119Z,44.10
2018-02-24T12:18:52.731Z,44.00
2018-02-24T12:21:21.079Z,43.70
2018-02-24T12:23:49.431Z,43.10
2018-02-24T12:26:17.071Z,42.70
2018-02-24T12:28:44.690Z,43.70
2018-02-24T12:31:12.267Z,43.70
2018-02-24T12:33:39.854Z,46.20
2018-02-24T12:36:07.472Z,42.20
2018-02-24T12:38:35.823Z,42.30
2018-02-24T12:41:03.428Z,41.90
2018-02-24T12:43:31.034Z,42.20
2018-02-24T12:45:59.387Z,41.70
2018-02-24T12:48:26.994Z,41.60
2018-02-24T12:50:54.608Z,42.30
2018-02-24T12:53:22.192Z,43.70
2018-02-24T12:55:49.814Z,40.50
2018-02-24T12:58:17.398Z,42.00
2018-02-24T13:00:44.978Z,42.10
2018-02-24T13:03:13.351Z,41.60
2018-02-24T13:05:40.935Z,42.20
2018-02-24T13:08:08.543Z,43.00
2018-02-24T13:10:36.132Z,41.60
2018-02-24T13:13:03.770Z,43.70
2018-02-24T13:15:31.379Z,40.70
2018-02-24T13:17:59.728Z,42.00
2018-02-24T13:20:28.104Z,38.90
2018-02-24T13:22:56.478Z,42.80
2018-02-24T13:25:24.149Z,42.70
2018-02-24T13:27:51.712Z,42.40
2018-02-24T13:30:19.319Z,44.70
2018-02-24T13:32:46.903Z,43.50
2018-02-24T13:35:14.515Z,44.10
2018-02-24T13:37:42.103Z,44.50
2018-02-24T13:40:09.707Z,42.00
2018-02-24T13:42:37.391Z,41.60
2018-02-24T13:45:05.157Z,45.10
2018-02-24T13:47:32.750Z,44.70
2018-02-24T13:50:00.379Z,44.90
2018-02-24T13:52:28.925Z,41.90
2018-02-24T13:54:56.756Z,41.70
2018-02-24T13:57:24.418Z,41.10
2018-02-24T13:59:52.019Z,41.40
2018-02-24T14:02:19.648Z,39.20
2018-02-24T14:04:47.344Z,41.10
2018-02-24T14:07:14.931Z,39.90
2018-02-24T14:09:43.307Z,42.30
2018-02-24T14:12:10.896Z,42.30
2018-02-24T14:14:38.479Z,38.80
2018-02-24T14:17:06.856Z,42.10
2018-02-24T14:19:34.458Z,42.10
2018-02-24T14:22:02.064Z,42.70
2018-02-24T14:24:29.683Z,37.80
2018-02-24T14:26:58.117Z,38.70
2018-02-24T14:29:25.699Z,38.70
2018-02-24T14:31:54.080Z,39.30
2018-02-24T14:34:21.678Z,39.20
2018-02-24T14:36:50.271Z,40.30
2018-02-24T14:39:18.614Z,39.20
2018-02-24T14:41:46.191Z,39.20
2018-02-24T14:44:15.600Z,41.50
2018-02-24T14:46:43.179Z,41.50
2018-02-24T14:49:10.791Z,38.70
2018-02-24T14:51:38.375Z,38.20
2018-02-24T14:54:06.000Z,37.80
2018-02-24T14:56:33.587Z,39.40
2018-02-24T14:59:01.218Z,39.90
2018-02-24T15:01:28.851Z,40.00
2018-02-24T15:03:56.430Z,38.20
2018-02-24T15:06:24.015Z,39.20
2018-02-24T15:08:51.627Z,38.70
2018-02-24T15:11:19.237Z,39.40
2018-02-24T15:13:46.847Z,38.70
2018-02-24T15:16:14.536Z,39.20
2018-02-24T15:18:42.175Z,39.20
2018-02-24T15:21:09.794Z,38.90
2018-02-24T15:23:37.379Z,38.70
2018-02-24T15:26:04.964Z,38.40
2018-02-24T15:28:33.340Z,39.20
2018-02-24T15:31:00.919Z,39.30
2018-02-24T15:33:28.569Z,39.80
2018-02-24T15:35:56.175Z,38.10
2018-02-24T15:38:23.801Z,39.10
2018-02-24T15:40:52.159Z,41.70
2018-02-24T15:43:19.743Z,41.70
2018-02-24T15:45:47.363Z,40.70
2018-02-24T15:48:15.715Z,40.40
2018-02-24T15:50:43.295Z,40.30
2018-02-24T15:53:11.802Z,41.20
2018-02-24T15:55:39.384Z,41.70
2018-02-24T15:58:07.731Z,41.30
2018-02-24T16:00:35.351Z,41.20
2018-02-24T16:03:02.936Z,40.20
2018-02-24T16:05:31.311Z,41.30
2018-02-24T16:07:59.700Z,40.70
2018-02-24T16:10:27.284Z,40.70
2018-02-24T16:12:54.894Z,42.00
2018-02-24T16:15:22.477Z,43.10
2018-02-24T16:17:50.099Z,41.50
2018-02-24T16:20:17.916Z,41.80
2018-02-24T16:22:45.511Z,41.20
2018-02-24T16:25:13.121Z,40.80
2018-02-24T16:27:40.711Z,41.50
2018-02-24T16:30:08.331Z,40.20
2018-02-24T16:32:35.911Z,40.50
2018-02-24T16:35:03.520Z,39.80
2018-02-24T16:37:31.160Z,39.90
2018-02-24T16:39:58.747Z,40.20
2018-02-24T16:42:26.368Z,41.90
2018-02-24T16:44:53.954Z,39.90
2018-02-24T16:47:22.335Z,42.20
2018-02-24T16:49:50.683Z,41.40
2018-02-24T16:52:18.279Z,41.30
2018-02-24T16:54:45.907Z,40.60
2018-02-24T16:57:14.263Z,41.80
2018-02-24T16:59:42.615Z,42.00
2018-02-24T17:02:10.223Z,42.00
2018-02-24T17:04:37.826Z,41.20
2018-02-24T17:07:06.167Z,41.90
2018-02-24T17:09:33.827Z,41.80
2018-02-24T17:12:02.194Z,45.50
2018-02-24T17:14:30.556Z,42.60
2018-02-24T17:16:59.542Z,42.60
2018-02-24T17:19:27.895Z,42.30
2018-02-24T17:21:56.239Z,44.60
2018-02-24T17:24:23.850Z,44.50
2018-02-24T17:26:51.431Z,42.80
2018-02-24T17:29:19.042Z,43.50
2018-02-24T17:31:46.619Z,43.30
2018-02-24T17:34:14.224Z,43.60
2018-02-24T17:36:41.814Z,43.70
2018-02-24T17:39:09.426Z,44.50
2018-02-24T17:41:37.007Z,43.50
2018-02-24T17:44:04.623Z,43.00
2018-02-24T17:46:32.239Z,45.40
2018-02-24T17:48:59.815Z,44.70
2018-02-24T17:51:27.414Z,44.50
2018-02-24T17:53:55.754Z,42.70
2018-02-24T17:56:23.355Z,42.70
2018-02-24T17:58:50.938Z,43.60
2018-02-24T18:01:18.518Z,44.10
2018-02-24T18:03:46.887Z,43.50
2018-02-24T18:06:14.471Z,43.50
2018-02-24T18:08:42.071Z,42.20
2018-02-24T18:11:10.467Z,42.00
2018-02-24T18:13:38.105Z,41.80
2018-02-24T18:16:06.189Z,41.80
2018-02-24T18:18:34.043Z,41.70
2018-02-24T18:21:02.499Z,42.10
2018-02-24T18:23:30.082Z,42.50
2018-02-24T18:25:57.687Z,42.10
2018-02-24T18:28:25.286Z,41.00
2018-02-24T18:30:53.663Z,41.90
2018-02-24T18:33:21.258Z,41.90
2018-02-24T18:35:48.855Z,41.50
2018-02-24T18:38:17.198Z,41.90
2018-02-24T18:40:44.815Z,41.80
2018-02-24T18:43:12.822Z,41.00
2018-02-24T18:45:40.477Z,39.70
2018-02-24T18:48:08.059Z,39.70
2018-02-24T18:50:35.639Z,39.70
2018-02-24T18:53:04.015Z,39.90
2018-02-24T18:55:32.387Z,40.20
2018-02-24T18:57:59.971Z,40.00
2018-02-24T19:00:27.591Z,40.20
2018-02-24T19:02:55.171Z,39.90
2018-02-24T19:05:22.751Z,39.20
2018-02-24T19:07:51.119Z,39.10
2018-02-24T19:10:19.462Z,39.00
2018-02-24T19:12:47.068Z,39.00
2018-02-24T19:15:14.651Z,39.00
2018-02-24T19:17:42.255Z,40.50
2018-02-24T19:20:09.835Z,39.70
2018-02-24T19:22:37.455Z,37.00
2018-02-24T19:25:05.065Z,38.00
2018-02-24T19:27:33.412Z,38.00
2018-02-24T19:30:01.026Z,38.00
2018-02-24T19:32:28.598Z,37.90
2018-02-24T19:34:56.181Z,38.70
2018-02-24T19:37:23.801Z,39.40
2018-02-24T19:39:52.147Z,38.90
2018-02-24T19:42:19.731Z,38.80
2018-02-24T19:44:47.335Z,37.90
2018-02-24T19:47:14.944Z,38.10
2018-02-24T19:49:42.524Z,37.70
2018-02-24T19:52:10.123Z,37.30
2018-02-24T19:54:37.700Z,38.70
2018-02-24T19:57:05.275Z,38.90
2018-02-24T19:59:32.885Z,37.80
2018-02-24T20:02:01.457Z,37.50
2018-02-24T20:04:29.085Z,37.70
2018-02-24T20:06:56.664Z,39.20
2018-02-24T20:09:24.247Z,37.50
2018-02-24T20:11:52.615Z,37.80
2018-02-24T20:14:20.960Z,37.10
2018-02-24T20:16:48.563Z,37.10
2018-02-24T20:19:16.147Z,36.70
2018-02-24T20:21:43.747Z,37.30
2018-02-24T20:24:11.378Z,36.10
2018-02-24T20:26:38.959Z,37.00
2018-02-24T20:29:06.583Z,37.30
2018-02-24T20:31:34.173Z,36.90
2018-02-24T20:34:01.751Z,37.40
2018-02-24T20:36:29.363Z,38.50
2018-02-24T20:38:57.006Z,38.70
2018-02-24T20:41:24.593Z,39.30
2018-02-24T20:43:52.203Z,39.50
2018-02-24T20:46:19.811Z,38.20
2018-02-24T20:48:47.395Z,38.60
2018-02-24T20:51:15.794Z,38.80
2018-02-24T20:53:43.375Z,38.20
2018-02-24T20:56:10.964Z,37.90
2018-02-24T20:58:39.343Z,38.00
2018-02-24T21:01:07.690Z,37.30
2018-02-24T21:03:36.171Z,41.00
2018-02-24T21:06:04.618Z,38.60
2018-02-24T21:08:32.280Z,38.50
2018-02-24T21:11:01.184Z,38.40
2018-02-24T21:13:28.763Z,38.40
2018-02-24T21:15:57.691Z,37.80
2018-02-24T21:18:26.047Z,38.10
2018-02-24T21:20:53.659Z,38.10
2018-02-24T21:23:21.247Z,37.40
2018-02-24T21:25:48.831Z,38.70
2018-02-24T21:28:16.440Z,41.10
2018-02-24T21:30:44.195Z,39.00
2018-02-24T21:33:11.799Z,39.00
2018-02-24T21:35:39.378Z,38.40
2018-02-24T21:38:06.995Z,38.60
2018-02-24T21:40:34.622Z,39.80
2018-02-24T21:43:02.208Z,38.60
2018-02-24T21:45:30.601Z,39.30
2018-02-24T21:47:58.191Z,39.20
2018-02-24T21:50:25.770Z,39.00
2018-02-24T21:52:54.143Z,39.60
2018-02-24T21:55:21.722Z,39.50
2018-02-24T21:57:49.322Z,39.70
2018-02-24T22:00:17.662Z,38.70
2018-02-24T22:02:45.240Z,38.70
2018-02-24T22:05:12.934Z,41.90
2018-02-24T22:07:41.379Z,39.00
2018-02-24T22:10:09.142Z,39.00
2018-02-24T22:12:36.743Z,39.20
2018-02-24T22:15:05.130Z,41.70
2018-02-24T22:17:32.721Z,41.60
2018-02-24T22:20:00.327Z,40.70
2018-02-24T22:22:27.903Z,39.00
2018-02-24T22:24:55.474Z,39.60
2018-02-24T22:27:23.077Z,39.60
2018-02-24T22:29:50.650Z,38.90
2018-02-24T22:32:18.260Z,39.70
2018-02-24T22:34:45.830Z,40.70
2018-02-24T22:37:13.411Z,41.00
2018-02-24T22:39:41.795Z,40.80
2018-02-24T22:42:09.371Z,40.10
2018-02-24T22:44:36.962Z,39.40
2018-02-24T22:47:04.580Z,39.40
2018-02-24T22:49:32.151Z,40.40
2018-02-24T22:52:00.495Z,39.30
2018-02-24T22:54:28.125Z,39.30
2018-02-24T22:56:55.703Z,41.60
2018-02-24T22:59:23.278Z,40.10
2018-02-24T23:01:50.880Z,38.80
2018-02-24T23:04:18.455Z,39.50
2018-02-24T23:06:46.835Z,38.10
2018-02-24T23:09:14.407Z,38.10
2018-02-24T23:11:41.989Z,38.00
2018-02-24T23:14:09.587Z,39.80
2018-02-24T23:16:37.195Z,37.60
2018-02-24T23:19:05.560Z,41.90
2018-02-24T23:21:33.922Z,40.50
2018-02-24T23:24:02.257Z,40.80
2018-02-24T23:26:29.860Z,40.70
2018-02-24T23:28:57.642Z,39.00
2018-02-24T23:31:25.242Z,39.40
2018-02-24T23:33:52.814Z,38.10
2018-02-24T23:36:20.424Z,39.30
2018-02-24T23:38:48.807Z,38.10
2018-02-24T23:41:16.410Z,38.10
2018-02-24T23:43:43.987Z,37.60
2018-02-24T23:46:11.587Z,38.00
2018-02-24T23:48:39.187Z,37.90
2018-02-24T23:51:06.816Z,37.30
2018-02-24T23:53:35.159Z,38.00
2018-02-24T23:56:02.737Z,37.90
2018-02-24T23:58:30.338Z,37.80
